Capitol Logistics 410




KRFD
Chicago/Rockford International Airport
Rockford, Illinois
KMSP
Minneapolis-St Paul International Airport
Minneapolis, Minnesota

Activity Log

Date Flight Route Aircraft Duration
04/11/2021 CPX410 RFD DBQ MNOSO BLUEM3 B738 0h 53m
08/31/2020 CPX410 RFD DBQ MNOSO BLUEM3 B738 1h 09m
01/15/2020 CPX410 RFD DBQ MNOSO BLUEM3 B738 1h 20m
11/29/2019 CPX410 RFD DBQ MNOSO BLUEM3 B738 1h 13m
11/18/2019 CPX410 N0319A110 RFD V128 JVL/N0452F380 DLL EAU EAU9 B738 1h 09m
11/14/2019 CPX410 N0306A110 RFD V128 JVL/N0448F400 DLL EAU EAU9 B738 1h 07m
11/11/2019 CPX410 N0343A110 RFD V128 JVL/N0455F360 DLL EAU EAU9 B738 1h 09m
10/28/2019 CPX410 RFD DBQ MNOSO BLUEM3 B738 1h 03m
08/02/2019 CPX410 KRFD RFD DBQ MNOSO BLUEM3 KMSP B738 1h 26m
07/19/2019 CPX410 RFD DBQ MNOSO BLUEM3 B738 1h 08m
06/25/2019 CPX410 RFD DBQ MNOSO BLUEM3 B738 1h 12m
03/09/2019 CPX410 RFD DBQ MNOSO BLUEM3 B752 0h 50m
02/20/2019 CPX410 RFD DBQ MNOSO BLUEM3 B752 1h 14m

Route Details

Aircraft Information
Primary: Boeing 737-800BCF
Backup: Boeing 757-200SF
Route Data
Distance: 278nm
Duration: 0h 45m
Recm'd Route: RFD DBQ MNOSO BLUEM3
Origin Wx: KRFD 141854Z 29011G19KT 10SM BKN038 09/M02 A3010 RMK AO2 SLP199 T00891022
Dest. Wx: KMSP 141853Z 34009KT 10SM BKN032 BKN040 06/M01 A3014 RMK AO2 SLP216 T00611006
Notes: